createdAt,value
2022-09-12T00:01:35.657Z,100648.66
2022-09-12T00:04:03.898Z,100646.94
2022-09-12T00:06:32.466Z,100649.72
2022-09-12T00:09:01.807Z,100601.91
2022-09-12T00:11:29.767Z,100646.09
2022-09-12T00:13:57.755Z,100641.69
2022-09-12T00:16:26.856Z,100639.88
2022-09-12T00:18:55.970Z,100639.00
2022-09-12T00:21:23.848Z,100637.44
2022-09-12T00:23:51.636Z,100633.78
2022-09-12T00:26:19.418Z,100631.97
2022-09-12T00:28:47.546Z,100573.84
2022-09-12T00:31:16.360Z,100563.50
2022-09-12T00:33:44.270Z,100577.03
2022-09-12T00:36:14.769Z,100590.22
2022-09-12T00:38:42.556Z,100624.28
2022-09-12T00:41:12.685Z,100615.13
2022-09-12T00:43:40.598Z,100622.91
2022-09-12T00:46:12.747Z,100614.66
2022-09-12T00:48:43.141Z,100615.84
2022-09-12T00:51:10.824Z,100621.31
2022-09-12T00:53:39.917Z,100617.91
2022-09-12T00:56:07.590Z,100618.97
2022-09-12T00:58:37.656Z,100612.66
2022-09-12T01:01:05.205Z,100613.63
2022-09-12T01:03:32.958Z,100611.81
2022-09-12T01:06:02.451Z,100607.44
2022-09-12T01:08:30.131Z,100611.06
2022-09-12T01:10:59.148Z,100607.31
2022-09-12T01:13:26.818Z,100604.63
2022-09-12T01:15:55.224Z,100603.88
2022-09-12T01:18:26.291Z,100608.25
2022-09-12T01:21:05.907Z,100519.44
2022-09-12T01:24:24.211Z,100590.97
2022-09-12T01:27:09.449Z,100553.81
2022-09-12T01:29:46.228Z,100572.34
2022-09-12T01:32:17.771Z,100596.44
2022-09-12T01:34:47.883Z,100593.75
2022-09-12T01:37:15.726Z,100592.25
2022-09-12T01:39:47.440Z,100559.06
2022-09-12T01:42:17.623Z,100590.63
2022-09-12T01:44:47.805Z,100592.25
2022-09-12T01:47:17.801Z,100593.19
2022-09-12T01:49:48.484Z,100534.78
2022-09-12T01:52:18.608Z,100584.34
2022-09-12T01:54:47.166Z,100590.41
2022-09-12T01:57:17.177Z,100592.25
2022-09-12T01:59:46.054Z,100576.03
2022-09-12T02:02:14.648Z,100517.97
2022-09-12T02:04:46.222Z,100580.69
2022-09-12T02:07:15.749Z,100591.50
2022-09-12T02:09:45.395Z,100583.47
2022-09-12T02:12:13.199Z,100583.47
2022-09-12T02:14:42.238Z,100561.88
2022-09-12T02:17:11.898Z,100554.06
2022-09-12T02:19:41.995Z,100571.19
2022-09-12T02:22:11.016Z,100577.25
2022-09-12T02:24:39.911Z,100560.59
2022-09-12T02:27:09.287Z,100576.41
2022-09-12T02:29:37.075Z,100573.84
2022-09-12T02:32:06.859Z,100575.66
2022-09-12T02:34:41.320Z,100574.81
2022-09-12T02:37:14.034Z,100562.75
2022-09-12T02:39:45.103Z,100576.78
2022-09-12T02:42:13.357Z,100544.63
2022-09-12T02:44:41.240Z,100555.28
2022-09-12T02:47:11.218Z,100548.00
2022-09-12T02:49:38.893Z,100566.41
2022-09-12T02:52:06.644Z,100563.59
2022-09-12T02:54:35.670Z,100564.66
2022-09-12T02:57:03.337Z,100571.41
2022-09-12T02:59:31.002Z,100570.66
2022-09-12T03:02:09.121Z,100555.06
2022-09-12T03:05:01.150Z,100554.06
2022-09-12T03:07:37.796Z,100556.75
2022-09-12T03:10:09.067Z,100544.81
2022-09-12T03:12:44.074Z,100561.06
2022-09-12T03:15:16.625Z,100564.91
2022-09-12T03:17:57.954Z,100480.91
2022-09-12T03:20:32.410Z,100562.09
2022-09-12T03:23:00.765Z,100550.63
2022-09-12T03:25:31.211Z,100560.75
2022-09-12T03:28:00.252Z,100541.84
2022-09-12T03:30:28.209Z,100494.03
2022-09-12T03:32:56.127Z,100557.09
2022-09-12T03:35:24.555Z,100566.00
2022-09-12T03:37:52.748Z,100559.78
2022-09-12T03:40:20.596Z,100572.34
2022-09-12T03:42:49.608Z,100566.13
2022-09-12T03:45:17.588Z,100562.69
2022-09-12T03:47:45.254Z,100560.88
2022-09-12T03:50:12.932Z,100564.53
2022-09-12T03:52:40.586Z,100558.19
2022-09-12T03:55:08.744Z,100566.47
2022-09-12T03:57:36.423Z,100547.84
2022-09-12T04:00:07.120Z,100555.88
2022-09-12T04:02:34.827Z,100552.22
2022-09-12T04:05:02.579Z,100554.28
2022-09-12T04:07:30.310Z,100558.66
2022-09-12T04:09:58.000Z,100558.66
2022-09-12T04:12:25.672Z,100554.16
2022-09-12T04:14:53.346Z,100566.69
2022-09-12T04:17:22.398Z,100563.25
2022-09-12T04:19:50.109Z,100570.47
2022-09-12T04:22:17.768Z,100561.56
2022-09-12T04:24:45.443Z,100562.44
2022-09-12T04:27:13.109Z,100562.66
2022-09-12T04:29:40.808Z,100554.75
2022-09-12T04:32:08.462Z,100550.59
2022-09-12T04:34:37.503Z,100561.91
2022-09-12T04:37:05.370Z,100559.34
2022-09-12T04:39:33.038Z,100561.03
2022-09-12T04:42:00.709Z,100562.88
2022-09-12T04:44:28.822Z,100558.63
2022-09-12T04:46:56.482Z,100562.88
2022-09-12T04:49:24.178Z,100562.03
2022-09-12T04:51:53.535Z,100563.97
2022-09-12T04:54:21.365Z,100566.38
2022-09-12T04:56:50.029Z,100575.38
2022-09-12T04:59:18.522Z,100572.34
2022-09-12T05:01:46.183Z,100564.44
2022-09-12T05:04:14.033Z,100568.69
2022-09-12T05:06:42.395Z,100565.91
2022-09-12T05:09:12.330Z,100507.84
2022-09-12T05:12:03.279Z,100570.50
2022-09-12T05:14:28.971Z,100570.28
2022-09-12T05:16:59.792Z,100573.72
2022-09-12T05:19:27.950Z,100567.59
2022-09-12T05:21:56.299Z,100573.19
2022-09-12T05:24:25.338Z,100572.25
2022-09-12T05:26:53.089Z,100567.84
2022-09-12T05:29:21.876Z,100563.56
2022-09-12T05:31:50.255Z,100562.94
2022-09-12T05:34:18.207Z,100570.03
2022-09-12T05:36:45.869Z,100565.72
2022-09-12T05:39:13.571Z,100566.94
2022-09-12T05:41:42.603Z,100570.28
2022-09-12T05:44:14.096Z,100563.34
2022-09-12T05:46:42.543Z,100554.69
2022-09-12T05:49:11.416Z,100563.84
2022-09-12T05:51:40.046Z,100564.72
2022-09-12T05:54:08.694Z,100538.22
2022-09-12T05:56:39.371Z,100565.78
2022-09-12T05:59:09.142Z,100571.25
2022-09-12T06:01:36.822Z,100571.59
2022-09-12T06:04:05.643Z,100568.06
2022-09-12T06:06:33.875Z,100519.09
2022-09-12T06:09:02.405Z,100566.03
2022-09-12T06:11:31.085Z,100501.63
2022-09-12T06:13:58.885Z,100484.47
2022-09-12T06:16:28.791Z,100566.59
2022-09-12T06:18:57.106Z,100506.91
2022-09-12T06:21:25.348Z,100557.75
2022-09-12T06:23:54.133Z,100554.09
2022-09-12T06:26:23.574Z,100553.22
2022-09-12T06:28:51.357Z,100554.97
2022-09-12T06:31:19.881Z,100566.16
2022-09-12T06:33:49.728Z,100558.13
2022-09-12T06:36:18.850Z,100556.31
2022-09-12T06:38:47.687Z,100555.22
2022-09-12T06:41:15.876Z,100556.09
2022-09-12T06:43:43.624Z,100559.00
2022-09-12T06:46:13.172Z,100555.06
2022-09-12T06:48:47.052Z,100561.09
2022-09-12T06:51:17.058Z,100550.06
2022-09-12T06:53:45.372Z,100554.91
2022-09-12T06:56:14.562Z,100552.84
2022-09-12T06:58:42.628Z,100535.06
2022-09-12T07:01:11.231Z,100550.25
2022-09-12T07:03:39.142Z,100545.53
2022-09-12T07:06:07.830Z,100479.63
2022-09-12T07:08:37.116Z,100561.53
2022-09-12T07:11:10.122Z,100556.66
2022-09-12T07:13:37.805Z,100551.97
2022-09-12T07:16:05.583Z,100546.84
2022-09-12T07:18:33.307Z,100549.00
2022-09-12T07:21:01.762Z,100467.53
2022-09-12T07:23:29.455Z,100550.56
2022-09-12T07:25:59.554Z,100539.34
2022-09-12T07:28:27.268Z,100549.19
2022-09-12T07:30:55.001Z,100552.63
2022-09-12T07:33:22.844Z,100495.81
2022-09-12T07:35:50.696Z,100540.69
2022-09-12T07:38:18.368Z,100536.59
2022-09-12T07:40:46.479Z,100529.03
2022-09-12T07:43:15.559Z,100474.03
2022-09-12T07:45:43.469Z,100530.06
2022-09-12T07:48:11.186Z,100533.00
2022-09-12T07:50:42.022Z,100531.84
2022-09-12T07:53:12.963Z,100535.66
2022-09-12T07:55:40.722Z,100522.09
2022-09-12T07:58:08.382Z,100528.25
2022-09-12T08:00:37.888Z,100527.44
2022-09-12T08:03:07.272Z,100533.63
2022-09-12T08:05:35.256Z,100529.25
2022-09-12T08:08:03.161Z,100536.81
2022-09-12T08:10:30.871Z,100533.38
2022-09-12T08:12:58.877Z,100534.16
2022-09-12T08:15:26.675Z,100528.50
2022-09-12T08:17:55.757Z,100533.16
2022-09-12T08:20:28.165Z,100529.59
2022-09-12T08:22:56.546Z,100505.97
2022-09-12T08:25:24.248Z,100530.94
2022-09-12T08:27:52.176Z,100528.16
2022-09-12T08:30:19.855Z,100527.75
2022-09-12T08:32:47.528Z,100464.41
2022-09-12T08:35:17.090Z,100529.28
2022-09-12T08:37:44.772Z,100521.25
2022-09-12T08:40:16.173Z,100520.13
2022-09-12T08:42:51.366Z,100521.44
2022-09-12T08:45:20.705Z,100519.16
2022-09-12T08:47:48.365Z,100476.97
2022-09-12T08:50:19.213Z,100518.50
2022-09-12T08:52:51.916Z,100502.78
2022-09-12T08:55:32.222Z,100517.09
2022-09-12T08:58:00.815Z,100521.44
2022-09-12T09:00:34.562Z,100509.91
2022-09-12T09:03:30.202Z,100511.25
2022-09-12T09:06:02.427Z,100438.16
2022-09-12T09:08:35.860Z,100443.28
2022-09-12T09:11:07.837Z,100505.53
2022-09-12T09:14:04.451Z,100440.97
2022-09-12T09:16:33.483Z,100455.63
2022-09-12T09:19:02.487Z,100463.75
2022-09-12T09:21:33.397Z,100516.06
2022-09-12T09:24:02.437Z,100507.78
2022-09-12T09:26:32.350Z,100510.09
2022-09-12T09:29:02.045Z,100495.19
2022-09-12T09:31:32.816Z,100440.97
2022-09-12T09:34:00.543Z,100505.91
2022-09-12T09:36:34.853Z,100502.38
2022-09-12T09:39:05.914Z,100496.06
2022-09-12T09:41:43.709Z,100483.28
2022-09-12T09:44:11.470Z,100488.72
2022-09-12T09:46:39.262Z,100443.38
2022-09-12T09:49:07.144Z,100492.63
2022-09-12T09:51:37.314Z,100501.25
2022-09-12T09:54:07.129Z,100494.81
2022-09-12T09:56:35.810Z,100496.25
2022-09-12T09:59:11.324Z,100464.59
2022-09-12T10:01:39.959Z,100489.97
2022-09-12T10:04:16.392Z,100487.66
2022-09-12T10:06:45.400Z,100487.03
2022-09-12T10:09:21.288Z,100478.16
2022-09-12T10:11:49.237Z,100443.16
2022-09-12T10:14:39.187Z,100482.03
2022-09-12T10:17:31.930Z,100494.81
2022-09-12T10:20:20.072Z,100479.47
2022-09-12T10:22:50.130Z,100479.22
2022-09-12T10:25:17.926Z,100472.38
2022-09-12T10:27:45.596Z,100465.91
2022-09-12T10:30:18.220Z,100466.50
2022-09-12T10:32:46.831Z,100452.53
2022-09-12T10:35:19.070Z,100472.47
2022-09-12T10:37:53.986Z,100462.81
2022-09-12T10:40:23.547Z,100455.50
2022-09-12T10:42:51.915Z,100408.75
2022-09-12T10:45:21.312Z,100455.38
2022-09-12T10:47:49.403Z,100459.50
2022-09-12T10:50:23.015Z,100417.03
2022-09-12T10:52:51.082Z,100442.06
2022-09-12T10:55:20.684Z,100425.06
2022-09-12T10:58:20.799Z,100458.97
2022-09-12T11:00:48.967Z,100450.94
2022-09-12T11:03:17.732Z,100426.72
2022-09-12T11:05:51.770Z,100415.50
2022-09-12T11:08:29.994Z,100431.94
2022-09-12T11:11:01.066Z,100430.06
2022-09-12T11:13:44.942Z,100389.19
2022-09-12T11:16:18.606Z,100438.72
2022-09-12T11:18:56.131Z,100428.81
2022-09-12T11:21:31.292Z,100420.72
2022-09-12T11:24:16.486Z,100433.09
2022-09-12T11:26:58.413Z,100390.38
2022-09-12T11:29:33.735Z,100426.88
2022-09-12T11:32:23.034Z,100428.56
2022-09-12T11:34:55.977Z,100433.66
2022-09-12T11:37:47.431Z,100420.25
2022-09-12T11:40:24.768Z,100393.88
2022-09-12T11:42:54.665Z,100395.91
2022-09-12T11:45:25.230Z,100387.16
2022-09-12T11:47:54.232Z,100362.69
2022-09-12T11:50:23.810Z,100404.88
2022-09-12T11:52:51.480Z,100403.88
2022-09-12T11:55:20.415Z,100333.97
2022-09-12T11:57:50.033Z,100402.44
2022-09-12T12:00:20.266Z,100404.13
2022-09-12T12:02:52.114Z,100403.00
2022-09-12T12:05:21.574Z,100364.91
2022-09-12T12:07:53.295Z,100365.13
2022-09-12T12:10:33.190Z,100402.59
2022-09-12T12:13:02.008Z,100397.22
2022-09-12T12:15:31.200Z,100397.69
2022-09-12T12:18:03.518Z,100393.31
2022-09-12T12:20:31.203Z,100400.84
2022-09-12T12:22:58.868Z,100393.50
2022-09-12T12:25:38.566Z,100366.13
2022-09-12T12:28:06.503Z,100390.81
2022-09-12T12:31:02.408Z,100377.84
2022-09-12T12:34:09.931Z,100378.44
2022-09-12T12:36:42.128Z,100378.31
2022-09-12T12:39:45.962Z,100375.91
2022-09-12T12:43:04.737Z,100373.75
2022-09-12T12:46:07.447Z,100349.56
2022-09-12T12:48:52.836Z,100239.47
2022-09-12T12:51:56.066Z,100361.94
2022-09-12T12:54:51.215Z,100359.25
2022-09-12T12:57:21.640Z,100287.03
2022-09-12T12:59:51.626Z,100302.97
2022-09-12T13:02:25.221Z,100351.88
2022-09-12T13:04:53.009Z,100348.38
2022-09-12T13:07:26.181Z,100349.25
2022-09-12T13:09:54.965Z,100346.69
2022-09-12T13:12:23.679Z,100345.44
2022-09-12T13:14:55.482Z,100340.91
2022-09-12T13:17:27.378Z,100315.53
2022-09-12T13:20:26.302Z,100323.38
2022-09-12T13:22:53.310Z,100332.59
2022-09-12T13:25:26.677Z,100328.22
2022-09-12T13:28:02.024Z,100237.97
2022-09-12T13:30:30.181Z,100317.34
2022-09-12T13:33:00.186Z,100311.69
2022-09-12T13:35:31.382Z,100312.41
2022-09-12T13:37:59.687Z,100312.97
2022-09-12T13:40:31.402Z,100283.69
2022-09-12T13:43:17.632Z,100305.56
2022-09-12T13:45:46.999Z,100302.00
2022-09-12T13:48:17.657Z,100291.84
2022-09-12T13:50:52.943Z,100270.03
2022-09-12T13:53:22.079Z,100261.22
2022-09-12T13:55:51.995Z,100289.13
2022-09-12T13:58:22.198Z,100270.78
2022-09-12T14:01:01.598Z,100266.50
2022-09-12T14:03:48.970Z,100262.13
2022-09-12T14:06:18.926Z,100266.22
2022-09-12T14:08:47.632Z,100265.25
2022-09-12T14:11:23.896Z,100242.03
2022-09-12T14:13:52.675Z,100262.25
2022-09-12T14:16:21.269Z,100256.63
2022-09-12T14:18:51.667Z,100261.56
2022-09-12T14:21:28.512Z,100261.56
2022-09-12T14:23:57.301Z,100263.25
2022-09-12T14:26:24.982Z,100248.81
2022-09-12T14:28:52.628Z,100245.16
2022-09-12T14:31:24.472Z,100245.56
2022-09-12T14:33:54.073Z,100165.88
2022-09-12T14:36:24.330Z,100236.91
2022-09-12T14:38:53.006Z,100214.13
2022-09-12T14:41:25.368Z,100233.25
2022-09-12T14:43:54.054Z,100230.84
2022-09-12T14:46:24.414Z,100231.53
2022-09-12T14:48:54.774Z,100188.53
2022-09-12T14:51:23.332Z,100227.59
2022-09-12T14:53:51.245Z,100229.97
2022-09-12T14:56:18.948Z,100225.19
2022-09-12T14:58:46.598Z,100226.75
2022-09-12T15:01:25.164Z,100227.28
2022-09-12T15:03:55.553Z,100222.47
2022-09-12T15:06:25.599Z,100226.03
2022-09-12T15:08:54.537Z,100220.50
2022-09-12T15:11:22.316Z,100224.88
2022-09-12T15:13:49.968Z,100219.19
2022-09-12T15:16:17.719Z,100222.75
2022-09-12T15:18:45.432Z,100214.53
2022-09-12T15:21:17.368Z,100211.56
2022-09-12T15:23:45.976Z,100145.19
2022-09-12T15:26:14.552Z,100153.66
2022-09-12T15:28:42.235Z,100206.56
2022-09-12T15:31:13.676Z,100203.72
2022-09-12T15:33:41.402Z,100200.88
2022-09-12T15:36:18.826Z,100202.31
2022-09-12T15:38:46.574Z,100137.38
2022-09-12T15:41:16.090Z,100158.00
2022-09-12T15:43:43.878Z,100198.56
2022-09-12T15:46:12.557Z,100197.44
2022-09-12T15:48:40.303Z,100155.69
2022-09-12T15:51:15.081Z,100192.75
2022-09-12T15:53:44.718Z,100151.47
2022-09-12T15:56:12.660Z,100192.75
2022-09-12T15:58:50.019Z,100183.50
2022-09-12T16:01:23.008Z,100178.28
2022-09-12T16:03:50.717Z,100182.66
2022-09-12T16:06:18.397Z,100169.78
2022-09-12T16:08:47.471Z,100173.91
2022-09-12T16:13:34.652Z,100178.44
2022-09-12T16:16:03.008Z,100175.03
2022-09-12T16:18:30.714Z,100176.19
2022-09-12T16:20:58.619Z,100112.44
2022-09-12T16:23:26.328Z,100165.84
2022-09-12T16:25:58.942Z,100148.75
2022-09-12T16:28:26.811Z,100158.06
2022-09-12T16:30:57.553Z,100164.59
2022-09-12T16:33:25.385Z,100156.53
2022-09-12T16:35:54.956Z,100147.91
2022-09-12T16:38:22.682Z,100150.72
2022-09-12T16:40:50.446Z,100085.41
2022-09-12T16:43:20.406Z,100146.34
2022-09-12T16:45:48.222Z,100139.56
2022-09-12T16:48:15.900Z,100138.16
2022-09-12T16:50:43.603Z,100137.44
2022-09-12T16:53:11.552Z,100134.06
2022-09-12T16:55:39.247Z,100138.03
2022-09-12T16:58:06.936Z,100130.97
2022-09-12T17:00:36.012Z,100139.03
2022-09-12T17:03:03.973Z,100113.72
2022-09-12T17:05:31.710Z,100122.47
2022-09-12T17:07:59.456Z,100126.31
2022-09-12T17:10:28.063Z,100120.22
2022-09-12T17:12:55.751Z,100115.97
2022-09-12T17:15:23.510Z,100113.72
2022-09-12T17:17:52.556Z,100121.94
2022-09-12T17:20:20.250Z,100119.53
2022-09-12T17:22:47.910Z,100128.91
2022-09-12T17:25:15.767Z,100128.19
2022-09-12T17:27:43.433Z,100119.69
2022-09-12T17:30:12.067Z,100116.03
2022-09-12T17:32:39.814Z,100117.59
2022-09-12T17:35:11.012Z,100117.88
2022-09-12T17:37:38.708Z,100122.56
2022-09-12T17:40:07.331Z,100113.94
2022-09-12T17:42:36.050Z,100113.38
2022-09-12T17:45:04.454Z,100109.00
2022-09-12T17:47:32.129Z,100110.28
2022-09-12T17:50:27.445Z,100106.16
2022-09-12T17:52:49.234Z,99940.91
2022-09-12T17:55:17.531Z,100098.66
2022-09-12T17:57:45.346Z,100115.53
2022-09-12T18:00:13.881Z,100118.50
2022-09-12T18:02:40.645Z,100117.78
2022-09-12T18:05:10.263Z,100115.38
2022-09-12T18:07:43.486Z,100114.69
2022-09-12T18:10:13.166Z,100115.81
2022-09-12T18:12:40.880Z,100122.31
2022-09-12T18:15:09.971Z,100113.53
2022-09-12T18:17:37.836Z,100110.13
2022-09-12T18:20:06.479Z,100111.25
2022-09-12T18:22:34.189Z,100109.84
2022-09-12T18:25:01.949Z,100117.06
2022-09-12T18:27:30.958Z,100110.00
2022-09-12T18:30:19.634Z,100103.06
2022-09-12T18:32:46.503Z,100108.59
2022-09-12T18:35:14.234Z,100107.72
2022-09-12T18:37:42.036Z,100048.06
2022-09-12T18:40:10.503Z,100109.88
2022-09-12T18:42:39.580Z,100107.19
2022-09-12T18:45:09.011Z,100101.09
2022-09-12T18:47:36.727Z,100105.75
2022-09-12T18:50:04.783Z,100062.75
2022-09-12T18:52:32.585Z,100103.34
2022-09-12T18:55:00.270Z,100110.44
2022-09-12T18:57:28.101Z,100109.72
2022-09-12T18:59:59.630Z,100109.00
2022-09-12T19:02:28.182Z,100107.31
2022-09-12T19:04:56.028Z,100102.22
2022-09-12T19:07:23.749Z,100105.91
2022-09-12T19:09:51.464Z,100109.56
2022-09-12T19:12:19.178Z,100095.44
2022-09-12T19:14:46.885Z,100097.28
2022-09-12T19:17:17.506Z,100080.72
2022-09-12T19:19:45.971Z,100086.94
2022-09-12T19:22:13.706Z,100091.31
2022-09-12T19:24:41.405Z,100085.13
2022-09-12T19:27:09.161Z,100084.41
2022-09-12T19:29:36.869Z,100079.03
2022-09-12T19:32:04.588Z,100074.66
2022-09-12T19:34:33.658Z,100075.63
2022-09-12T19:37:01.405Z,100063.47
2022-09-12T19:39:29.101Z,100076.75
2022-09-12T19:41:56.807Z,100073.22
2022-09-12T19:44:27.032Z,100071.53
2022-09-12T19:46:54.784Z,100078.72
2022-09-12T19:49:22.484Z,100071.53
2022-09-12T19:51:51.532Z,100070.81
2022-09-12T19:54:19.253Z,100064.63
2022-09-12T19:56:47.187Z,100065.59
2022-09-12T19:59:14.892Z,100059.53
2022-09-12T20:01:42.771Z,100057.81
2022-09-12T20:04:10.522Z,100054.44
2022-09-12T20:06:38.715Z,100053.84
2022-09-12T20:09:07.722Z,100055.41
2022-09-12T20:11:35.464Z,100053.72
2022-09-12T20:14:03.362Z,100028.97
2022-09-12T20:16:31.720Z,100048.47
2022-09-12T20:19:00.361Z,100044.25
2022-09-12T20:21:31.760Z,100037.16
2022-09-12T20:24:03.848Z,100039.84
2022-09-12T20:26:32.966Z,100039.16
2022-09-12T20:29:00.753Z,99998.69
2022-09-12T20:31:28.630Z,100036.63
2022-09-12T20:33:56.491Z,100034.06
2022-09-12T20:36:24.369Z,100033.22
2022-09-12T20:38:52.907Z,99999.66
2022-09-12T20:41:20.937Z,100031.66
2022-09-12T20:43:52.290Z,100029.94
2022-09-12T20:46:22.137Z,100028.25
2022-09-12T20:48:50.431Z,99983.56
2022-09-12T20:51:18.315Z,100027.41
2022-09-12T20:53:46.047Z,100022.13
2022-09-12T20:56:15.003Z,100028.50
2022-09-12T20:58:44.256Z,100012.41
2022-09-12T21:01:15.993Z,99968.72
2022-09-12T21:03:44.169Z,99992.06
2022-09-12T21:06:12.537Z,99985.97
2022-09-12T21:08:40.278Z,99980.75
2022-09-12T21:11:08.066Z,99978.94
2022-09-12T21:13:35.849Z,99982.56
2022-09-12T21:16:05.340Z,99984.44
2022-09-12T21:18:34.528Z,99989.09
2022-09-12T21:21:02.292Z,99982.03
2022-09-12T21:23:30.010Z,99988.63
2022-09-12T21:25:57.732Z,99980.31
2022-09-12T21:28:25.483Z,99973.25
2022-09-12T21:30:53.255Z,99926.88
2022-09-12T21:33:21.692Z,99974.25
2022-09-12T21:35:50.779Z,99975.22
2022-09-12T21:38:18.855Z,99962.34
2022-09-12T21:40:46.750Z,99961.25
2022-09-12T21:43:14.765Z,99959.41
2022-09-12T21:45:42.492Z,99946.13
2022-09-12T21:48:10.168Z,99949.81
2022-09-12T21:50:37.885Z,99945.28
2022-09-12T21:53:06.871Z,99946.97
2022-09-12T21:55:34.554Z,99955.31
2022-09-12T21:58:02.216Z,99949.94
2022-09-12T22:00:29.962Z,99948.41
2022-09-12T22:02:57.964Z,99937.66
2022-09-12T22:05:25.688Z,99941.31
2022-09-12T22:07:53.611Z,99939.63
2022-09-12T22:10:22.671Z,99936.22
2022-09-12T22:12:50.401Z,99941.59
2022-09-12T22:15:39.478Z,99936.22
2022-09-12T22:18:07.354Z,99937.09
2022-09-12T22:20:35.092Z,99933.41
2022-09-12T22:23:24.593Z,99926.78
2022-09-12T22:25:55.635Z,99898.13
2022-09-12T22:28:24.469Z,99927.63
2022-09-12T22:30:54.386Z,99854.03
2022-09-12T22:33:22.062Z,99919.56
2022-09-12T22:35:49.773Z,99910.53
2022-09-12T22:38:17.531Z,99923.69
2022-09-12T22:40:45.228Z,99923.81
2022-09-12T22:43:14.411Z,99923.81
2022-09-12T22:45:42.808Z,99922.97
2022-09-12T22:48:10.580Z,99923.09
2022-09-12T22:50:38.498Z,99922.97
2022-09-12T22:53:06.178Z,99926.66
2022-09-12T22:55:33.862Z,99908.97
2022-09-12T22:58:01.519Z,99911.66
2022-09-12T23:00:30.635Z,99905.44
2022-09-12T23:02:58.386Z,99914.47
2022-09-12T23:05:26.131Z,99914.63
2022-09-12T23:07:54.203Z,99916.34
2022-09-12T23:10:21.882Z,99913.66
2022-09-12T23:12:49.840Z,99902.19
2022-09-12T23:15:17.609Z,99903.06
2022-09-12T23:17:46.696Z,99892.47
2022-09-12T23:20:14.372Z,99898.81
2022-09-12T23:22:42.096Z,99888.06
2022-09-12T23:25:10.070Z,99885.66
2022-09-12T23:27:37.752Z,99884.69
2022-09-12T23:30:06.799Z,99891.91
2022-09-12T23:32:34.634Z,99859.28
2022-09-12T23:35:03.816Z,99883.97
2022-09-12T23:37:31.563Z,99875.22
2022-09-12T23:39:59.290Z,99879.63
2022-09-12T23:42:27.035Z,99885.13
2022-09-12T23:44:54.702Z,99885.13
2022-09-12T23:47:22.431Z,99893.16
2022-09-12T23:49:50.108Z,99879.91
2022-09-12T23:52:19.172Z,99877.22
2022-09-12T23:54:46.865Z,99881.88
2022-09-12T23:57:14.578Z,99880.88
2022-09-12T23:59:42.246Z,99880.19
